createdAt,value
2022-10-18T00:02:12.230Z,70.52
2022-10-18T00:04:39.269Z,70.60
2022-10-18T00:07:06.195Z,70.50
2022-10-18T00:09:33.444Z,70.31
2022-10-18T00:12:00.933Z,70.19
2022-10-18T00:14:27.853Z,70.23
2022-10-18T00:16:54.749Z,70.21
2022-10-18T00:19:24.717Z,70.24
2022-10-18T00:21:54.007Z,70.29
2022-10-18T00:24:20.958Z,70.27
2022-10-18T00:26:47.864Z,70.46
2022-10-18T00:29:15.481Z,70.19
2022-10-18T00:31:43.623Z,70.16
2022-10-18T00:34:12.554Z,70.27
2022-10-18T00:36:39.417Z,70.32
2022-10-18T00:39:06.920Z,70.41
2022-10-18T00:41:34.967Z,70.47
2022-10-18T00:44:01.883Z,70.54
2022-10-18T00:46:50.469Z,70.51
2022-10-18T00:49:22.631Z,70.29
2022-10-18T00:51:56.235Z,70.29
2022-10-18T00:54:23.541Z,70.32
2022-10-18T00:56:50.592Z,70.33
2022-10-18T00:59:18.045Z,70.46
2022-10-18T01:01:45.340Z,70.36
2022-10-18T01:04:13.924Z,70.38
2022-10-18T01:06:47.522Z,70.48
2022-10-18T01:09:24.612Z,70.30
2022-10-18T01:12:33.273Z,70.24
2022-10-18T01:15:23.858Z,70.24
2022-10-18T01:18:09.193Z,70.32
2022-10-18T01:21:00.658Z,70.35
2022-10-18T01:23:46.018Z,70.60
2022-10-18T01:26:35.722Z,70.66
2022-10-18T01:29:35.101Z,70.53
2022-10-18T01:32:03.812Z,70.37
2022-10-18T01:34:32.926Z,70.46
2022-10-18T01:36:59.782Z,70.70
2022-10-18T01:39:31.496Z,70.88
2022-10-18T01:41:58.687Z,70.94
2022-10-18T01:44:26.678Z,71.05
2022-10-18T01:46:54.389Z,71.27
2022-10-18T01:49:21.403Z,71.29
2022-10-18T01:51:48.448Z,70.95
2022-10-18T01:54:27.900Z,70.86
2022-10-18T01:57:25.229Z,70.89
2022-10-18T01:59:55.482Z,71.00
2022-10-18T02:02:29.166Z,71.14
2022-10-18T02:05:02.901Z,71.37
2022-10-18T02:07:43.673Z,71.48
2022-10-18T02:10:31.791Z,71.28
2022-10-18T02:12:58.756Z,70.98
2022-10-18T02:15:34.712Z,70.82
2022-10-18T02:18:02.527Z,70.79
2022-10-18T02:20:29.469Z,70.83
2022-10-18T02:22:56.559Z,70.93
2022-10-18T02:25:25.033Z,70.93
2022-10-18T02:27:54.445Z,70.85
2022-10-18T02:30:23.333Z,70.92
2022-10-18T02:33:14.956Z,70.79
2022-10-18T02:35:45.325Z,70.79
2022-10-18T02:38:12.425Z,70.93
2022-10-18T02:40:39.335Z,70.91
2022-10-18T02:43:06.507Z,70.99
2022-10-18T02:45:33.572Z,71.24
2022-10-18T02:48:00.529Z,71.18
2022-10-18T02:50:27.466Z,71.12
2022-10-18T02:52:54.538Z,71.04
2022-10-18T02:55:21.685Z,71.03
2022-10-18T02:57:48.700Z,71.03
2022-10-18T03:00:15.836Z,70.98
2022-10-18T03:02:42.747Z,71.02
2022-10-18T03:05:09.778Z,71.11
2022-10-18T03:07:36.739Z,71.38
2022-10-18T03:10:03.830Z,71.39
2022-10-18T03:12:30.903Z,71.56
2022-10-18T03:14:57.822Z,71.51
2022-10-18T03:17:24.792Z,71.40
2022-10-18T03:19:51.827Z,71.35
2022-10-18T03:22:18.822Z,71.37
2022-10-18T03:24:45.772Z,71.31
2022-10-18T03:27:12.803Z,71.28
2022-10-18T03:29:40.664Z,71.09
2022-10-18T03:32:07.580Z,71.02
2022-10-18T03:34:34.670Z,71.01
2022-10-18T03:37:04.738Z,71.05
2022-10-18T03:39:32.443Z,71.39
2022-10-18T03:41:59.396Z,71.62
2022-10-18T03:44:26.276Z,71.75
2022-10-18T03:46:53.240Z,71.69
2022-10-18T03:49:20.275Z,71.55
2022-10-18T03:51:47.137Z,71.46
2022-10-18T03:54:14.034Z,71.50
2022-10-18T03:56:40.909Z,71.67
2022-10-18T03:59:07.853Z,71.68
2022-10-18T04:01:34.689Z,71.82
2022-10-18T04:04:01.683Z,71.89
2022-10-18T04:06:28.797Z,71.95
2022-10-18T04:08:56.078Z,71.93
2022-10-18T04:11:23.090Z,71.66
2022-10-18T04:13:50.488Z,71.44
2022-10-18T04:16:17.418Z,71.30
2022-10-18T04:18:44.334Z,71.40
2022-10-18T04:21:11.269Z,71.24
2022-10-18T04:23:38.992Z,71.38
2022-10-18T04:26:06.600Z,71.40
2022-10-18T04:28:34.211Z,71.41
2022-10-18T04:31:01.332Z,71.11
2022-10-18T04:33:28.701Z,71.19
2022-10-18T04:35:55.626Z,71.18
2022-10-18T04:38:22.531Z,71.29
2022-10-18T04:40:49.497Z,71.21
2022-10-18T04:43:16.668Z,71.20
2022-10-18T04:45:45.723Z,71.36
2022-10-18T04:48:12.773Z,71.48
2022-10-18T04:50:39.807Z,71.41
2022-10-18T04:53:13.723Z,71.23
2022-10-18T04:55:43.898Z,71.30
2022-10-18T04:58:11.087Z,71.41
2022-10-18T05:00:40.085Z,71.50
2022-10-18T05:03:07.770Z,71.55
2022-10-18T05:05:49.662Z,71.52
2022-10-18T05:08:22.241Z,71.96
2022-10-18T05:10:49.157Z,71.95
2022-10-18T05:13:16.289Z,71.79
2022-10-18T05:15:43.233Z,71.64
2022-10-18T05:18:10.074Z,71.63
2022-10-18T05:20:37.173Z,71.74
2022-10-18T05:23:04.377Z,71.90
2022-10-18T05:25:31.261Z,71.97
2022-10-18T05:28:00.929Z,72.13
2022-10-18T05:32:53.152Z,72.20
2022-10-18T05:35:20.063Z,72.11
2022-10-18T05:37:47.204Z,72.35
2022-10-18T05:40:14.261Z,72.42
2022-10-18T05:42:41.248Z,72.54
2022-10-18T05:45:08.969Z,72.77
2022-10-18T05:50:08.374Z,72.98
2022-10-18T05:52:35.356Z,73.04
2022-10-18T05:55:02.379Z,73.26
2022-10-18T05:57:29.614Z,73.37
2022-10-18T05:59:57.011Z,73.60
2022-10-18T06:02:24.126Z,73.69
2022-10-18T06:04:51.157Z,73.71
2022-10-18T06:07:18.228Z,73.66
2022-10-18T06:09:45.168Z,73.56
2022-10-18T06:12:12.075Z,73.45
2022-10-18T06:14:39.032Z,73.23
2022-10-18T06:17:05.955Z,72.90
2022-10-18T06:19:32.943Z,72.56
2022-10-18T06:22:00.070Z,72.26
2022-10-18T06:24:27.488Z,71.68
2022-10-18T06:26:54.364Z,71.26
2022-10-18T06:29:21.308Z,70.77
2022-10-18T06:31:48.164Z,70.47
2022-10-18T06:34:15.080Z,69.93
2022-10-18T06:36:41.965Z,69.53
2022-10-18T06:39:08.891Z,68.97
2022-10-18T06:41:35.828Z,68.46
2022-10-18T06:44:17.109Z,67.68
2022-10-18T06:46:45.181Z,66.67
2022-10-18T06:49:14.089Z,66.07
2022-10-18T06:51:43.813Z,65.61
2022-10-18T06:54:17.865Z,65.22
2022-10-18T06:56:45.595Z,64.28
2022-10-18T06:59:15.069Z,63.69
2022-10-18T07:01:42.144Z,63.10
2022-10-18T07:04:09.132Z,62.44
2022-10-18T07:06:36.168Z,62.03
2022-10-18T07:09:03.966Z,61.50
2022-10-18T07:11:30.897Z,61.01
2022-10-18T07:14:05.388Z,60.50
2022-10-18T07:16:32.864Z,60.04
2022-10-18T07:18:59.769Z,59.42
2022-10-18T07:21:29.968Z,59.08
2022-10-18T07:23:56.946Z,58.56
2022-10-18T07:26:29.264Z,58.09
2022-10-18T07:28:58.550Z,57.70
2022-10-18T07:31:25.888Z,57.01
2022-10-18T07:33:53.069Z,56.42
2022-10-18T07:36:21.392Z,55.87
2022-10-18T07:38:49.325Z,55.30
2022-10-18T07:41:16.316Z,54.63
2022-10-18T07:43:47.542Z,54.83
2022-10-18T07:46:15.058Z,54.14
2022-10-18T07:48:42.103Z,53.20
2022-10-18T07:51:09.382Z,52.62
2022-10-18T07:53:36.667Z,52.16
2022-10-18T07:56:16.499Z,51.66
2022-10-18T07:58:44.364Z,51.31
2022-10-18T08:01:11.818Z,51.07
2022-10-18T08:03:38.962Z,50.66
2022-10-18T08:06:08.847Z,49.80
2022-10-18T08:08:36.155Z,49.12
2022-10-18T08:11:08.016Z,48.51
2022-10-18T08:13:34.967Z,47.80
2022-10-18T08:16:06.067Z,47.08
2022-10-18T08:18:33.290Z,46.72
2022-10-18T08:21:04.387Z,46.66
2022-10-18T08:23:31.327Z,46.18
2022-10-18T08:26:02.071Z,45.70
2022-10-18T08:28:29.603Z,45.03
2022-10-18T08:30:56.633Z,44.82
2022-10-18T08:33:23.652Z,43.99
2022-10-18T08:36:00.818Z,43.44
2022-10-18T08:38:31.533Z,42.96
2022-10-18T08:41:02.694Z,42.64
2022-10-18T08:43:39.012Z,42.30
2022-10-18T08:46:06.045Z,42.41
2022-10-18T08:48:36.100Z,41.94
2022-10-18T08:51:04.290Z,41.51
2022-10-18T08:53:40.184Z,41.18
2022-10-18T08:56:14.482Z,40.47
2022-10-18T08:58:43.088Z,40.10
2022-10-18T09:01:16.023Z,40.08
2022-10-18T09:04:11.001Z,39.95
2022-10-18T09:07:15.423Z,39.16
2022-10-18T09:10:07.338Z,38.70
2022-10-18T09:13:04.878Z,38.65
2022-10-18T09:15:54.254Z,38.00
2022-10-18T09:18:42.443Z,37.27
2022-10-18T09:21:17.940Z,37.09
2022-10-18T09:24:00.486Z,36.52
2022-10-18T09:26:27.466Z,36.10
2022-10-18T09:29:13.364Z,35.83
2022-10-18T09:32:07.018Z,35.07
2022-10-18T09:34:48.021Z,34.26
2022-10-18T09:37:16.868Z,34.03
2022-10-18T09:39:44.149Z,33.89
2022-10-18T09:42:17.314Z,33.85
2022-10-18T09:44:49.359Z,33.83
2022-10-18T09:47:21.510Z,33.58
2022-10-18T09:49:54.342Z,33.79
2022-10-18T09:52:26.850Z,33.34
2022-10-18T09:55:00.160Z,33.34
2022-10-18T09:57:41.606Z,32.87
2022-10-18T10:00:23.014Z,32.53
2022-10-18T10:02:50.012Z,32.39
2022-10-18T10:05:17.185Z,32.37
2022-10-18T10:07:47.564Z,32.32
2022-10-18T10:10:14.679Z,31.94
2022-10-18T10:12:44.080Z,31.70
2022-10-18T10:15:22.897Z,31.46
2022-10-18T10:18:01.799Z,31.46
2022-10-18T10:20:50.812Z,30.80
2022-10-18T10:23:32.760Z,30.57
2022-10-18T10:26:05.218Z,30.09
2022-10-18T10:28:35.201Z,30.10
2022-10-18T10:31:33.318Z,30.42
2022-10-18T10:34:06.486Z,30.46
2022-10-18T10:36:34.278Z,30.25
2022-10-18T10:39:12.124Z,29.88
2022-10-18T10:41:40.474Z,30.23
2022-10-18T10:44:19.292Z,29.88
2022-10-18T10:46:46.361Z,29.99
2022-10-18T10:49:39.218Z,29.97
2022-10-18T10:52:15.441Z,29.86
2022-10-18T10:54:52.207Z,29.79
2022-10-18T10:57:27.035Z,30.06
2022-10-18T10:59:55.678Z,30.36
2022-10-18T11:02:33.394Z,30.12
2022-10-18T11:05:22.749Z,30.36
2022-10-18T11:10:08.020Z,30.48
2022-10-18T11:12:37.233Z,30.35
2022-10-18T11:15:12.167Z,30.42
2022-10-18T11:17:46.311Z,30.73
2022-10-18T11:20:19.757Z,30.45
2022-10-18T11:22:54.177Z,30.33
2022-10-18T11:25:21.349Z,30.10
2022-10-18T11:27:57.612Z,30.24
